createdAt,value
2019-01-09T00:02:24.717Z,75.72
2019-01-09T00:04:51.309Z,75.63
2019-01-09T00:07:17.903Z,75.61
2019-01-09T00:09:44.597Z,75.40
2019-01-09T00:12:11.212Z,74.90
2019-01-09T00:14:37.820Z,74.88
2019-01-09T00:17:04.688Z,74.90
2019-01-09T00:19:31.308Z,74.91
2019-01-09T00:21:57.924Z,75.12
2019-01-09T00:24:24.520Z,75.06
2019-01-09T00:26:51.108Z,75.18
2019-01-09T00:29:17.708Z,75.07
2019-01-09T00:31:44.304Z,74.82
2019-01-09T00:34:10.909Z,74.68
2019-01-09T00:36:37.518Z,74.67
2019-01-09T00:39:04.772Z,74.31
2019-01-09T00:41:31.363Z,74.22
2019-01-09T00:43:57.980Z,74.38
2019-01-09T00:46:24.578Z,74.36
2019-01-09T00:48:51.304Z,74.31
2019-01-09T00:51:17.902Z,74.03
2019-01-09T00:53:44.595Z,74.17
2019-01-09T00:56:11.187Z,74.21
2019-01-09T00:58:37.801Z,74.31
2019-01-09T01:01:04.445Z,74.41
2019-01-09T01:03:48.424Z,74.55
2019-01-09T01:06:33.560Z,74.61
2019-01-09T01:09:18.328Z,74.70
2019-01-09T01:12:04.444Z,74.52
2019-01-09T01:14:56.694Z,74.73
2019-01-09T01:17:54.930Z,74.94
2019-01-09T01:20:34.715Z,75.21
2019-01-09T01:23:19.724Z,75.30
2019-01-09T01:26:15.034Z,75.16
2019-01-09T01:28:58.758Z,75.22
2019-01-09T01:31:43.257Z,75.40
2019-01-09T01:34:13.989Z,75.67
2019-01-09T01:37:09.051Z,75.53
2019-01-09T01:39:38.485Z,75.37
2019-01-09T01:42:39.825Z,75.57
2019-01-09T01:45:22.516Z,75.69
2019-01-09T01:48:08.721Z,75.86
2019-01-09T01:50:57.997Z,76.06
2019-01-09T01:53:42.797Z,76.30
2019-01-09T01:56:29.886Z,76.38
2019-01-09T01:59:07.999Z,76.52
2019-01-09T02:01:47.961Z,76.40
2019-01-09T02:04:28.070Z,76.48
2019-01-09T02:07:17.311Z,76.65
2019-01-09T02:10:09.306Z,76.70
2019-01-09T02:12:58.213Z,76.65
2019-01-09T02:15:59.517Z,76.66
2019-01-09T02:18:45.635Z,76.55
2019-01-09T02:21:15.576Z,76.48
2019-01-09T02:24:07.717Z,76.54
2019-01-09T02:26:56.571Z,76.54
2019-01-09T02:29:57.562Z,76.28
2019-01-09T02:32:30.444Z,76.35
2019-01-09T02:34:57.142Z,76.28
2019-01-09T02:37:23.751Z,76.15
2019-01-09T02:39:50.435Z,76.29
2019-01-09T02:42:17.037Z,76.28
2019-01-09T02:44:43.632Z,76.33
2019-01-09T02:47:10.231Z,76.73
2019-01-09T02:49:36.904Z,76.80
2019-01-09T02:52:03.554Z,76.74
2019-01-09T02:54:30.154Z,76.70
2019-01-09T02:56:56.752Z,76.68
2019-01-09T02:59:23.352Z,76.28
2019-01-09T03:01:51.586Z,76.35
2019-01-09T03:04:18.195Z,76.36
2019-01-09T03:06:44.808Z,76.42
2019-01-09T03:09:11.419Z,76.52
2019-01-09T03:11:38.017Z,76.58
2019-01-09T03:14:04.606Z,76.75
2019-01-09T03:16:31.229Z,76.76
2019-01-09T03:18:57.824Z,76.79
2019-01-09T03:21:24.542Z,76.85
2019-01-09T03:23:51.150Z,76.80
2019-01-09T03:26:17.759Z,76.86
2019-01-09T03:28:44.351Z,76.74
2019-01-09T03:31:10.966Z,76.75
2019-01-09T03:33:37.649Z,76.84
2019-01-09T03:36:04.256Z,76.96
2019-01-09T03:38:30.843Z,76.82
2019-01-09T03:40:57.460Z,76.29
2019-01-09T03:43:24.087Z,76.07
2019-01-09T03:45:50.679Z,75.70
2019-01-09T03:48:17.298Z,75.62
2019-01-09T03:50:43.886Z,75.38
2019-01-09T03:53:10.481Z,74.94
2019-01-09T03:55:37.175Z,74.92
2019-01-09T03:58:06.602Z,75.07
2019-01-09T04:00:33.211Z,74.91
2019-01-09T04:02:59.846Z,74.34
2019-01-09T04:05:26.525Z,74.21
2019-01-09T04:07:53.151Z,74.21
2019-01-09T04:10:19.751Z,74.20
2019-01-09T04:12:46.443Z,74.38
2019-01-09T04:15:13.064Z,74.87
2019-01-09T04:17:39.678Z,75.37
2019-01-09T04:20:06.379Z,75.85
2019-01-09T04:22:33.007Z,75.78
2019-01-09T04:24:59.608Z,75.90
2019-01-09T04:27:26.195Z,76.24
2019-01-09T04:29:52.794Z,76.44
2019-01-09T04:32:19.401Z,76.80
2019-01-09T04:34:46.027Z,77.22
2019-01-09T04:37:12.620Z,77.39
2019-01-09T04:39:39.235Z,77.65
2019-01-09T04:42:05.842Z,77.79
2019-01-09T04:44:32.478Z,77.50
2019-01-09T04:46:59.185Z,77.40
2019-01-09T04:49:25.780Z,77.20
2019-01-09T04:51:52.406Z,76.86
2019-01-09T04:54:19.026Z,76.42
2019-01-09T04:56:45.742Z,75.68
2019-01-09T04:59:12.450Z,75.12
2019-01-09T05:01:39.082Z,74.88
2019-01-09T05:04:05.707Z,74.86
2019-01-09T05:06:32.408Z,74.39
2019-01-09T05:08:59.038Z,74.32
2019-01-09T05:11:25.662Z,74.24
2019-01-09T05:13:52.284Z,73.97
2019-01-09T05:16:18.890Z,74.02
2019-01-09T05:18:45.508Z,74.10
2019-01-09T05:21:12.116Z,74.08
2019-01-09T05:23:38.726Z,73.92
2019-01-09T05:26:05.421Z,73.98
2019-01-09T05:28:32.041Z,74.00
2019-01-09T05:31:07.222Z,74.03
2019-01-09T05:33:27.167Z,73.93
2019-01-09T05:35:53.900Z,73.78
2019-01-09T05:38:20.595Z,73.84
2019-01-09T05:40:47.243Z,73.80
2019-01-09T05:43:13.845Z,73.73
2019-01-09T05:45:40.539Z,73.50
2019-01-09T05:48:07.168Z,73.13
2019-01-09T05:50:33.770Z,72.74
2019-01-09T05:53:00.403Z,72.91
2019-01-09T05:55:27.008Z,72.84
2019-01-09T05:57:53.667Z,72.91
2019-01-09T06:00:20.364Z,73.04
2019-01-09T06:02:46.970Z,72.70
2019-01-09T06:05:13.585Z,72.79
2019-01-09T06:07:40.211Z,72.91
2019-01-09T06:10:06.939Z,72.89
2019-01-09T06:12:33.553Z,72.98
2019-01-09T06:15:00.279Z,73.00
2019-01-09T06:17:26.998Z,72.88
2019-01-09T06:19:53.711Z,72.99
2019-01-09T06:22:20.407Z,73.08
2019-01-09T06:24:47.050Z,73.02
2019-01-09T06:27:13.741Z,73.17
2019-01-09T06:29:40.437Z,73.11
2019-01-09T06:32:07.049Z,73.35
2019-01-09T06:34:33.633Z,73.37
2019-01-09T06:37:00.254Z,73.41
2019-01-09T06:39:26.871Z,73.37
2019-01-09T06:41:53.498Z,73.26
2019-01-09T06:44:20.237Z,73.34
2019-01-09T06:46:46.943Z,73.36
2019-01-09T06:49:13.545Z,73.39
2019-01-09T06:51:40.166Z,73.55
2019-01-09T06:54:06.947Z,73.64
2019-01-09T06:56:33.584Z,73.53
2019-01-09T06:59:00.240Z,73.47
2019-01-09T07:01:26.935Z,73.53
2019-01-09T07:03:53.565Z,73.50
2019-01-09T07:06:20.204Z,73.43
2019-01-09T07:08:46.927Z,73.61
2019-01-09T07:11:13.618Z,73.64
2019-01-09T07:13:40.233Z,73.97
2019-01-09T07:16:06.960Z,74.16
2019-01-09T07:18:33.563Z,73.80
2019-01-09T07:21:00.206Z,73.03
2019-01-09T07:23:26.819Z,72.27
2019-01-09T07:25:53.500Z,72.60
2019-01-09T07:28:20.136Z,72.93
2019-01-09T07:30:46.748Z,72.54
2019-01-09T07:33:13.551Z,72.56
2019-01-09T07:35:40.243Z,72.84
2019-01-09T07:38:06.964Z,73.13
2019-01-09T07:40:33.574Z,73.23
2019-01-09T07:43:00.178Z,73.48
2019-01-09T07:45:26.813Z,73.46
2019-01-09T07:47:53.427Z,73.08
2019-01-09T07:50:20.132Z,72.74
2019-01-09T07:52:46.752Z,72.95
2019-01-09T07:55:13.376Z,72.69
2019-01-09T07:57:40.008Z,72.47
2019-01-09T08:00:07.612Z,72.37
2019-01-09T08:02:34.284Z,72.21
2019-01-09T08:05:00.980Z,71.85
2019-01-09T08:07:27.588Z,71.19
2019-01-09T08:09:54.200Z,71.29
2019-01-09T08:12:20.926Z,71.50
2019-01-09T08:14:47.545Z,71.20
2019-01-09T08:17:14.176Z,71.10
2019-01-09T08:19:40.904Z,71.79
2019-01-09T08:22:07.510Z,70.90
2019-01-09T08:24:34.148Z,70.10
2019-01-09T08:27:00.807Z,69.94
2019-01-09T08:29:27.495Z,69.43
2019-01-09T08:31:54.105Z,69.46
2019-01-09T08:34:20.701Z,69.79
2019-01-09T08:36:47.303Z,69.92
2019-01-09T08:39:13.909Z,70.25
2019-01-09T08:41:40.653Z,71.06
2019-01-09T08:44:07.273Z,70.09
2019-01-09T08:46:33.905Z,69.74
2019-01-09T08:49:00.601Z,68.99
2019-01-09T08:51:27.213Z,69.14
2019-01-09T08:53:53.811Z,69.09
2019-01-09T08:56:20.445Z,68.95
2019-01-09T08:58:47.039Z,68.38
2019-01-09T09:01:13.655Z,68.54
2019-01-09T09:03:40.287Z,68.44
2019-01-09T09:06:06.893Z,68.32
2019-01-09T09:08:33.621Z,68.35
2019-01-09T09:11:00.237Z,68.15
2019-01-09T09:13:33.855Z,67.85
2019-01-09T09:16:00.471Z,68.15
2019-01-09T09:18:27.184Z,68.40
2019-01-09T09:20:54.633Z,68.70
2019-01-09T09:23:21.364Z,68.98
2019-01-09T09:25:48.056Z,69.09
2019-01-09T09:28:14.688Z,69.25
2019-01-09T09:30:41.412Z,69.56
2019-01-09T09:33:08.110Z,70.06
2019-01-09T09:35:34.725Z,70.54
2019-01-09T09:38:01.419Z,70.71
2019-01-09T09:40:28.050Z,71.07
2019-01-09T09:42:54.756Z,71.38
2019-01-09T09:45:21.445Z,71.68
2019-01-09T09:47:48.044Z,71.73
2019-01-09T09:50:14.789Z,71.96
2019-01-09T09:52:41.405Z,71.85
2019-01-09T09:55:12.869Z,71.74
2019-01-09T09:57:36.535Z,71.80
2019-01-09T10:00:03.442Z,72.05
2019-01-09T10:02:30.163Z,72.13
2019-01-09T10:04:56.888Z,71.84
2019-01-09T10:07:23.636Z,72.04
2019-01-09T10:09:50.344Z,72.18
2019-01-09T10:12:16.956Z,72.18
2019-01-09T10:14:43.648Z,72.18
2019-01-09T10:17:10.543Z,72.30
2019-01-09T10:19:37.294Z,72.38
2019-01-09T10:22:04.002Z,72.12
2019-01-09T10:24:30.762Z,72.12
2019-01-09T10:26:57.450Z,72.18
2019-01-09T10:29:24.073Z,72.12
2019-01-09T10:31:50.771Z,72.15
2019-01-09T10:34:17.395Z,72.23
2019-01-09T10:36:44.073Z,72.12
2019-01-09T10:39:10.771Z,72.36
2019-01-09T10:41:37.461Z,72.31
2019-01-09T10:44:04.059Z,72.34
2019-01-09T10:46:30.696Z,72.34
2019-01-09T10:48:57.411Z,72.51
2019-01-09T10:51:24.142Z,72.63
2019-01-09T10:53:50.759Z,72.91
2019-01-09T10:56:17.370Z,73.16
2019-01-09T10:58:44.067Z,73.30
2019-01-09T11:01:10.667Z,73.32
2019-01-09T11:03:37.292Z,73.40
2019-01-09T11:06:03.920Z,73.33
2019-01-09T11:08:30.644Z,73.36
2019-01-09T11:10:57.273Z,73.61
2019-01-09T11:13:23.991Z,73.52
2019-01-09T11:15:50.682Z,73.48
2019-01-09T11:18:17.282Z,73.32
2019-01-09T11:20:43.898Z,73.50
2019-01-09T11:23:10.619Z,73.65
2019-01-09T11:25:37.311Z,73.81
2019-01-09T11:28:04.034Z,73.69
2019-01-09T11:30:30.764Z,73.67
2019-01-09T11:32:57.376Z,74.06
2019-01-09T11:35:24.244Z,74.29
2019-01-09T11:37:52.919Z,74.13
2019-01-09T11:40:19.374Z,74.05
2019-01-09T11:42:46.155Z,74.21
2019-01-09T11:45:13.485Z,73.99
2019-01-09T11:47:40.084Z,73.99
2019-01-09T11:50:07.072Z,74.10
2019-01-09T11:52:33.692Z,74.26
2019-01-09T11:55:00.294Z,74.34
2019-01-09T11:57:27.006Z,74.37
2019-01-09T11:59:53.623Z,74.50
2019-01-09T12:02:22.206Z,74.41
2019-01-09T12:04:59.275Z,74.34
2019-01-09T12:07:25.967Z,74.33
2019-01-09T12:09:52.596Z,74.35
2019-01-09T12:12:19.206Z,74.06
2019-01-09T12:14:45.904Z,74.21
2019-01-09T12:17:12.594Z,74.01
2019-01-09T12:19:39.189Z,74.18
2019-01-09T12:22:05.914Z,74.27
2019-01-09T12:24:32.622Z,74.05
2019-01-09T12:26:59.270Z,73.97
2019-01-09T12:29:25.894Z,74.07
2019-01-09T12:31:52.526Z,74.28
2019-01-09T12:34:19.247Z,74.29
2019-01-09T12:36:45.858Z,74.46
2019-01-09T12:39:13.347Z,74.49
2019-01-09T12:41:40.248Z,74.23
2019-01-09T12:44:06.842Z,73.83
2019-01-09T12:46:33.447Z,73.94
2019-01-09T12:49:00.089Z,74.12
2019-01-09T12:51:26.718Z,73.94
2019-01-09T12:53:53.330Z,73.57
2019-01-09T12:56:20.024Z,73.90
2019-01-09T12:58:46.649Z,73.82
2019-01-09T13:01:13.273Z,73.75
2019-01-09T13:03:40.019Z,73.87
2019-01-09T13:06:06.723Z,74.00
2019-01-09T13:08:33.339Z,74.05
2019-01-09T13:11:00.051Z,74.29
2019-01-09T13:13:26.655Z,74.26
2019-01-09T13:15:53.259Z,74.29
2019-01-09T13:18:19.958Z,74.40
2019-01-09T13:20:46.597Z,73.83
2019-01-09T13:23:13.298Z,73.73
2019-01-09T13:25:39.915Z,73.91
2019-01-09T13:28:06.495Z,74.10
2019-01-09T13:30:33.112Z,74.45
2019-01-09T13:33:00.091Z,74.46
2019-01-09T13:35:33.204Z,74.58
2019-01-09T13:38:00.195Z,74.71
2019-01-09T13:40:26.801Z,74.79
2019-01-09T13:42:53.392Z,74.99
2019-01-09T13:45:20.351Z,74.97
2019-01-09T13:47:46.987Z,74.94
2019-01-09T13:50:13.839Z,75.25
2019-01-09T13:52:40.455Z,75.26
2019-01-09T13:55:07.724Z,75.63
2019-01-09T13:57:34.421Z,75.81
2019-01-09T14:00:01.045Z,75.85
2019-01-09T14:02:27.642Z,75.64
2019-01-09T14:04:54.347Z,75.71
2019-01-09T14:07:20.964Z,75.85
2019-01-09T14:09:47.563Z,75.84
2019-01-09T14:12:14.267Z,75.85
2019-01-09T14:14:41.031Z,75.88
2019-01-09T14:17:07.681Z,76.11
2019-01-09T14:19:34.271Z,76.18
2019-01-09T14:22:00.934Z,76.20
2019-01-09T14:24:27.562Z,76.09
2019-01-09T14:26:54.276Z,76.15
2019-01-09T14:29:20.918Z,76.07
2019-01-09T14:31:47.528Z,76.18
2019-01-09T14:34:14.183Z,76.27
2019-01-09T14:36:40.855Z,76.27
2019-01-09T14:39:07.606Z,76.27
2019-01-09T14:41:34.246Z,76.29
2019-01-09T14:44:00.858Z,76.18
2019-01-09T14:46:27.461Z,76.15
2019-01-09T14:48:54.190Z,76.07
2019-01-09T14:51:20.826Z,75.87
2019-01-09T14:53:47.840Z,75.75
2019-01-09T14:56:14.592Z,75.63
2019-01-09T14:58:41.262Z,75.34
2019-01-09T15:01:07.994Z,75.46
2019-01-09T15:03:34.716Z,75.57
2019-01-09T15:06:01.470Z,75.72
2019-01-09T15:08:28.165Z,75.71
2019-01-09T15:10:54.782Z,75.66
2019-01-09T15:13:21.395Z,75.77
2019-01-09T15:15:48.098Z,75.75
2019-01-09T15:18:14.724Z,75.24
2019-01-09T15:20:41.352Z,74.96
2019-01-09T15:23:08.059Z,75.09
2019-01-09T15:25:34.712Z,75.14
2019-01-09T15:28:01.511Z,75.31
2019-01-09T15:30:28.896Z,75.42
2019-01-09T15:32:55.579Z,75.48
2019-01-09T15:35:22.195Z,75.61
2019-01-09T15:37:48.830Z,75.65
2019-01-09T15:40:16.641Z,75.63
2019-01-09T15:42:43.265Z,75.69
2019-01-09T15:45:12.799Z,75.64
2019-01-09T15:47:39.655Z,75.78
2019-01-09T15:50:07.546Z,75.82
2019-01-09T15:52:34.469Z,75.92
2019-01-09T15:55:01.107Z,76.00
2019-01-09T15:57:27.854Z,76.03
2019-01-09T15:59:54.690Z,76.06
2019-01-09T16:02:21.963Z,76.09
2019-01-09T16:04:48.812Z,76.08
2019-01-09T16:07:15.634Z,75.97
2019-01-09T16:09:42.305Z,75.96
2019-01-09T16:12:08.951Z,76.07
2019-01-09T16:14:35.733Z,76.17
2019-01-09T16:17:02.353Z,76.60
2019-01-09T16:19:29.084Z,76.89
2019-01-09T16:21:55.797Z,76.56
2019-01-09T16:24:22.444Z,76.40
2019-01-09T16:26:49.188Z,75.80
2019-01-09T16:29:15.971Z,75.53
2019-01-09T16:31:42.713Z,75.78
2019-01-09T16:34:12.655Z,76.03
2019-01-09T16:39:30.880Z,76.41
2019-01-09T16:41:54.941Z,76.41
2019-01-09T16:44:21.687Z,76.34
2019-01-09T16:46:48.480Z,76.39
2019-01-09T16:49:16.100Z,76.42
2019-01-09T16:51:42.969Z,76.37
2019-01-09T16:54:10.927Z,76.35
2019-01-09T16:56:37.710Z,76.20
2019-01-09T16:59:04.457Z,76.11
2019-01-09T17:01:31.261Z,76.04
2019-01-09T17:03:58.026Z,76.06
2019-01-09T17:06:24.805Z,75.79
2019-01-09T17:08:51.539Z,75.86
2019-01-09T17:11:18.310Z,75.78
2019-01-09T17:13:45.097Z,75.51
2019-01-09T17:16:11.876Z,75.53
2019-01-09T17:18:39.487Z,75.40
2019-01-09T17:21:11.781Z,75.41
2019-01-09T17:23:42.270Z,75.38
2019-01-09T17:26:09.014Z,75.37
2019-01-09T17:28:35.792Z,75.30
2019-01-09T17:31:05.834Z,75.18
2019-01-09T17:33:33.036Z,75.04
2019-01-09T17:36:02.639Z,75.02
2019-01-09T17:38:33.132Z,75.00
2019-01-09T17:41:11.302Z,75.01
2019-01-09T17:43:38.058Z,75.25
2019-01-09T17:46:04.816Z,75.33
2019-01-09T17:48:31.773Z,75.35
2019-01-09T17:50:59.065Z,75.49
2019-01-09T17:53:26.299Z,75.27
2019-01-09T17:55:53.182Z,75.39
2019-01-09T17:58:19.985Z,75.62
2019-01-09T18:00:47.059Z,75.71
2019-01-09T18:03:13.805Z,75.81
2019-01-09T18:05:40.703Z,75.65
2019-01-09T18:08:10.765Z,75.79
2019-01-09T18:10:49.994Z,75.94
2019-01-09T18:13:17.955Z,76.08
2019-01-09T18:15:44.825Z,76.21
2019-01-09T18:18:24.498Z,76.38
2019-01-09T18:20:46.720Z,76.44
2019-01-09T18:23:22.153Z,76.62
2019-01-09T18:25:49.648Z,76.67
2019-01-09T18:28:18.536Z,76.71
2019-01-09T18:30:53.869Z,76.75
2019-01-09T18:33:44.984Z,76.77
2019-01-09T18:36:32.262Z,76.91
2019-01-09T18:39:19.059Z,76.91
2019-01-09T18:42:05.579Z,76.96
2019-01-09T18:44:39.783Z,76.96
2019-01-09T18:47:26.123Z,77.00
2019-01-09T18:50:12.483Z,76.95
2019-01-09T18:52:42.508Z,77.01
2019-01-09T18:55:09.377Z,77.01
2019-01-09T18:57:36.210Z,77.05
2019-01-09T19:00:04.309Z,77.28
2019-01-09T19:02:39.545Z,77.17
2019-01-09T19:05:06.523Z,77.18
2019-01-09T19:07:33.313Z,77.18
2019-01-09T19:10:00.192Z,76.67
2019-01-09T19:12:27.267Z,76.48
2019-01-09T19:15:06.157Z,76.42
2019-01-09T19:17:32.980Z,76.71
2019-01-09T19:19:59.810Z,76.79
2019-01-09T19:22:27.006Z,76.99
2019-01-09T19:24:54.839Z,77.02
2019-01-09T19:27:23.333Z,77.04
2019-01-09T19:29:50.274Z,77.23
2019-01-09T19:32:17.512Z,77.21
2019-01-09T19:34:46.495Z,77.31
2019-01-09T19:37:13.677Z,77.27
2019-01-09T19:39:40.582Z,77.32
2019-01-09T19:42:19.930Z,77.40
2019-01-09T19:47:34.959Z,77.30
2019-01-09T19:50:01.883Z,77.29
2019-01-09T19:52:29.972Z,77.35
2019-01-09T19:54:58.121Z,77.40
2019-01-09T19:57:25.597Z,77.36
2019-01-09T19:59:52.675Z,77.31
2019-01-09T20:02:19.974Z,77.36
2019-01-09T20:05:08.433Z,77.44
2019-01-09T20:07:35.393Z,77.37
2019-01-09T20:10:02.602Z,77.37
2019-01-09T20:12:29.540Z,77.34
2019-01-09T20:14:56.577Z,77.22
2019-01-09T20:17:23.904Z,77.20
2019-01-09T20:19:50.828Z,77.17
2019-01-09T20:22:17.880Z,77.03
2019-01-09T20:24:45.087Z,77.10
2019-01-09T20:27:11.964Z,77.08
2019-01-09T20:29:38.858Z,77.11
2019-01-09T20:32:06.259Z,77.24
2019-01-09T20:34:33.146Z,77.30
2019-01-09T20:37:00.043Z,77.27
2019-01-09T20:39:26.838Z,77.29
2019-01-09T20:41:53.682Z,77.40
2019-01-09T20:44:22.622Z,77.43
2019-01-09T20:46:50.374Z,77.43
2019-01-09T20:49:17.485Z,77.48
2019-01-09T20:51:44.302Z,77.55
2019-01-09T20:54:11.087Z,77.55
2019-01-09T20:56:38.966Z,77.61
2019-01-09T20:59:08.295Z,77.64
2019-01-09T21:01:35.090Z,77.58
2019-01-09T21:04:03.566Z,77.53
2019-01-09T21:06:30.491Z,77.51
2019-01-09T21:08:59.755Z,77.57
2019-01-09T21:11:26.258Z,77.66
2019-01-09T21:13:56.112Z,77.73
2019-01-09T21:16:23.130Z,77.75
2019-01-09T21:18:49.989Z,77.70
2019-01-09T21:21:17.071Z,77.74
2019-01-09T21:23:43.891Z,77.79
2019-01-09T21:26:11.582Z,77.74
2019-01-09T21:28:38.673Z,77.74
2019-01-09T21:31:05.427Z,77.71
2019-01-09T21:33:32.224Z,77.71
2019-01-09T21:35:59.055Z,77.75
2019-01-09T21:38:27.618Z,77.55
2019-01-09T21:40:54.390Z,77.46
2019-01-09T21:43:21.173Z,77.42
2019-01-09T21:45:47.958Z,77.45
2019-01-09T21:48:15.692Z,77.52
2019-01-09T21:50:42.447Z,77.59
2019-01-09T21:53:09.215Z,77.62
2019-01-09T21:55:36.026Z,77.64
2019-01-09T21:58:02.796Z,77.58
2019-01-09T22:00:29.584Z,77.57
2019-01-09T22:02:56.351Z,77.55
2019-01-09T22:05:23.596Z,77.51
2019-01-09T22:07:50.336Z,77.52
2019-01-09T22:10:24.403Z,77.52
2019-01-09T22:12:51.076Z,77.44
2019-01-09T22:15:17.939Z,77.37
2019-01-09T22:17:46.240Z,77.31
2019-01-09T22:20:13.097Z,77.35
2019-01-09T22:22:39.841Z,77.42
2019-01-09T22:25:07.025Z,77.42
2019-01-09T22:27:33.774Z,77.47
2019-01-09T22:30:00.549Z,77.46
2019-01-09T22:32:27.261Z,77.48
2019-01-09T22:34:53.986Z,77.56
2019-01-09T22:37:20.611Z,77.54
2019-01-09T22:39:47.338Z,77.47
2019-01-09T22:42:13.966Z,77.48
2019-01-09T22:44:40.699Z,77.42
2019-01-09T22:47:07.322Z,77.32
2019-01-09T22:49:33.959Z,77.32
2019-01-09T22:52:00.645Z,77.28
2019-01-09T22:54:36.059Z,77.23
2019-01-09T22:56:55.801Z,77.25
2019-01-09T22:59:22.537Z,77.24
2019-01-09T23:01:49.232Z,77.21
2019-01-09T23:04:15.840Z,77.28
2019-01-09T23:06:42.565Z,77.30
2019-01-09T23:09:09.265Z,77.33
2019-01-09T23:11:35.990Z,77.42
2019-01-09T23:14:02.621Z,77.45
2019-01-09T23:16:29.423Z,77.57
2019-01-09T23:18:56.026Z,77.60
2019-01-09T23:21:22.733Z,77.60
2019-01-09T23:23:49.331Z,77.65
2019-01-09T23:26:15.942Z,77.75
2019-01-09T23:28:42.672Z,77.79
2019-01-09T23:31:09.379Z,77.83
2019-01-09T23:33:35.980Z,77.87
2019-01-09T23:36:02.798Z,77.83
2019-01-09T23:38:29.389Z,77.88
2019-01-09T23:40:56.000Z,77.83
2019-01-09T23:43:22.714Z,77.83
2019-01-09T23:45:49.413Z,77.84
2019-01-09T23:48:16.008Z,77.77
2019-01-09T23:50:42.612Z,77.69
2019-01-09T23:53:09.212Z,77.65
2019-01-09T23:55:35.842Z,77.69
2019-01-09T23:58:02.446Z,77.71
